createdAt,value
2022-08-16T00:01:28.897Z,98174.93
2022-08-16T00:04:05.224Z,98174.71
2022-08-16T00:06:34.350Z,98173.21
2022-08-16T00:09:07.918Z,98166.30
2022-08-16T00:11:45.147Z,98166.36
2022-08-16T00:14:28.965Z,98164.94
2022-08-16T00:17:16.223Z,98162.70
2022-08-16T00:19:49.188Z,98163.40
2022-08-16T00:22:25.439Z,98160.84
2022-08-16T00:24:55.479Z,98166.86
2022-08-16T00:27:23.486Z,98167.68
2022-08-16T00:30:08.820Z,98168.98
2022-08-16T00:32:44.157Z,98170.21
2022-08-16T00:35:18.689Z,98166.34
2022-08-16T00:37:59.332Z,98166.84
2022-08-16T00:40:43.940Z,98167.40
2022-08-16T00:43:41.046Z,98162.86
2022-08-16T00:46:33.672Z,98158.72
2022-08-16T00:49:18.818Z,98160.24
2022-08-16T00:51:55.059Z,98158.39
2022-08-16T00:54:29.559Z,98153.82
2022-08-16T00:57:04.949Z,98151.43
2022-08-16T00:59:36.851Z,98152.42
2022-08-16T01:02:30.285Z,98150.88
2022-08-16T01:05:10.724Z,98150.58
2022-08-16T01:07:52.159Z,98147.13
2022-08-16T01:10:31.955Z,98146.30
2022-08-16T01:13:15.185Z,98149.56
2022-08-16T01:15:58.227Z,98145.20
2022-08-16T01:18:40.659Z,98141.45
2022-08-16T01:21:30.347Z,98143.77
2022-08-16T01:24:51.599Z,98137.06
2022-08-16T01:27:48.460Z,98130.80
2022-08-16T01:30:20.193Z,98131.04
2022-08-16T01:33:02.766Z,98134.05
2022-08-16T01:35:52.251Z,98135.55
2022-08-16T01:38:36.471Z,98135.20
2022-08-16T01:41:19.893Z,98136.23
2022-08-16T01:43:55.971Z,98138.91
2022-08-16T01:46:44.397Z,98134.31
2022-08-16T01:49:18.847Z,98132.13
2022-08-16T01:52:03.692Z,98133.73
2022-08-16T01:54:32.561Z,98135.93
2022-08-16T01:57:09.127Z,98132.25
2022-08-16T01:59:44.052Z,98131.48
2022-08-16T02:02:27.114Z,98133.90
2022-08-16T02:05:00.545Z,98130.56
2022-08-16T02:07:28.741Z,98130.49
2022-08-16T02:10:05.253Z,98133.60
2022-08-16T02:12:43.573Z,98132.46
2022-08-16T02:15:27.460Z,98127.09
2022-08-16T02:18:01.282Z,98125.96
2022-08-16T02:20:39.492Z,98127.23
2022-08-16T02:23:17.195Z,98125.81
2022-08-16T02:25:51.674Z,98117.94
2022-08-16T02:28:27.437Z,98116.14
2022-08-16T02:30:59.856Z,98117.95
2022-08-16T02:33:44.636Z,98119.27
2022-08-16T02:36:47.605Z,98124.03
2022-08-16T02:39:10.330Z,98126.30
2022-08-16T02:41:41.174Z,98126.03
2022-08-16T02:44:13.781Z,98130.01
2022-08-16T02:46:50.670Z,98129.23
2022-08-16T02:49:58.603Z,98127.20
2022-08-16T02:52:24.371Z,98132.40
2022-08-16T02:54:56.811Z,98128.65
2022-08-16T02:57:27.734Z,98127.64
2022-08-16T02:59:56.209Z,98126.59
2022-08-16T03:02:32.085Z,98123.87
2022-08-16T03:05:09.561Z,98125.09
2022-08-16T03:07:38.738Z,98128.66
2022-08-16T03:10:12.546Z,98131.71
2022-08-16T03:12:56.275Z,98133.15
2022-08-16T03:15:26.102Z,98134.63
2022-08-16T03:17:58.824Z,98138.38
2022-08-16T03:20:32.260Z,98141.81
2022-08-16T03:23:04.903Z,98148.07
2022-08-16T03:25:41.146Z,98154.15
2022-08-16T03:28:17.138Z,98153.11
2022-08-16T03:30:48.754Z,98151.10
2022-08-16T03:33:19.942Z,98147.33
2022-08-16T03:35:47.909Z,98144.98
2022-08-16T03:38:34.445Z,98142.16
2022-08-16T03:41:17.196Z,98146.77
2022-08-16T03:43:56.855Z,98146.16
2022-08-16T03:46:48.309Z,98144.56
2022-08-16T03:49:20.426Z,98139.83
2022-08-16T03:51:54.675Z,98144.19
2022-08-16T03:54:22.453Z,98145.73
2022-08-16T03:56:56.892Z,98145.20
2022-08-16T03:59:32.566Z,98144.35
2022-08-16T04:02:01.671Z,98149.25
2022-08-16T04:04:36.135Z,98153.48
2022-08-16T04:07:07.648Z,98151.46
2022-08-16T04:09:38.929Z,98156.33
2022-08-16T04:12:54.694Z,98155.17
2022-08-16T04:15:02.900Z,98156.79
2022-08-16T04:17:39.601Z,98157.29
2022-08-16T04:20:23.639Z,98158.63
2022-08-16T04:23:00.922Z,98163.42
2022-08-16T04:25:31.659Z,98166.13
2022-08-16T04:28:29.336Z,98167.52
2022-08-16T04:30:47.779Z,98168.92
2022-08-16T04:33:16.966Z,98167.70
2022-08-16T04:35:49.538Z,98169.88
2022-08-16T04:38:21.361Z,98174.78
2022-08-16T04:40:50.015Z,98181.04
2022-08-16T04:43:21.136Z,98177.94
2022-08-16T04:45:55.115Z,98179.25
2022-08-16T04:48:34.049Z,98179.41
2022-08-16T04:51:07.803Z,98178.29
2022-08-16T04:53:42.819Z,98174.98
2022-08-16T04:56:11.192Z,98174.16
2022-08-16T04:58:46.051Z,98165.61
2022-08-16T05:01:20.218Z,98162.61
2022-08-16T05:04:00.569Z,98162.61
2022-08-16T05:06:42.358Z,98158.92
2022-08-16T05:09:23.010Z,98157.77
2022-08-16T05:11:51.128Z,98154.72
2022-08-16T05:14:42.090Z,98158.20
2022-08-16T05:17:11.811Z,98161.36
2022-08-16T05:19:39.996Z,98166.36
2022-08-16T05:22:17.985Z,98171.80
2022-08-16T05:24:54.917Z,98173.34
2022-08-16T05:27:26.587Z,98175.30
2022-08-16T05:30:02.002Z,98175.77
2022-08-16T05:32:45.906Z,98173.07
2022-08-16T05:35:19.027Z,98175.59
2022-08-16T05:37:55.135Z,98177.39
2022-08-16T05:40:24.019Z,98176.17
2022-08-16T05:42:57.282Z,98178.09
2022-08-16T05:45:29.881Z,98180.13
2022-08-16T05:47:59.976Z,98178.10
2022-08-16T05:50:34.338Z,98179.91
2022-08-16T05:53:05.243Z,98178.07
2022-08-16T05:55:40.812Z,98179.59
2022-08-16T05:58:31.676Z,98179.21
2022-08-16T06:01:03.182Z,98176.75
2022-08-16T06:03:34.367Z,98179.50
2022-08-16T06:06:02.788Z,98181.23
2022-08-16T06:08:42.137Z,98183.21
2022-08-16T06:11:18.940Z,98186.83
2022-08-16T06:13:47.915Z,98185.09
2022-08-16T06:16:21.003Z,98179.24
2022-08-16T06:18:48.957Z,98179.39
2022-08-16T06:21:23.727Z,98179.16
2022-08-16T06:23:57.718Z,98180.14
2022-08-16T06:26:34.752Z,98179.20
2022-08-16T06:29:07.821Z,98182.21
2022-08-16T06:31:49.076Z,98185.77
2022-08-16T06:34:54.206Z,98190.04
2022-08-16T06:37:11.351Z,98194.28
2022-08-16T06:39:49.287Z,98187.80
2022-08-16T06:42:20.679Z,98187.70
2022-08-16T06:44:52.245Z,98188.80
2022-08-16T06:47:19.954Z,98190.73
2022-08-16T06:49:53.811Z,98187.56
2022-08-16T06:52:57.736Z,98184.31
2022-08-16T06:55:15.948Z,98190.11
2022-08-16T06:57:43.683Z,98191.50
2022-08-16T07:00:24.287Z,98190.83
2022-08-16T07:02:59.653Z,98192.73
2022-08-16T07:05:41.826Z,98188.77
2022-08-16T07:08:13.183Z,98189.77
2022-08-16T07:10:45.137Z,98187.27
2022-08-16T07:13:26.644Z,98188.69
2022-08-16T07:16:15.489Z,98192.27
2022-08-16T07:19:01.627Z,98203.60
2022-08-16T07:21:45.951Z,98201.61
2022-08-16T07:24:30.525Z,98206.80
2022-08-16T07:27:00.767Z,98205.21
2022-08-16T07:29:32.192Z,98201.66
2022-08-16T07:32:07.293Z,98202.83
2022-08-16T07:34:48.199Z,98193.34
2022-08-16T07:37:23.059Z,98192.52
2022-08-16T07:39:55.386Z,98193.94
2022-08-16T07:42:28.422Z,98190.80
2022-08-16T07:45:10.318Z,98185.30
2022-08-16T07:47:38.321Z,98188.02
2022-08-16T07:50:57.064Z,98191.14
2022-08-16T07:53:05.136Z,98190.83
2022-08-16T07:55:45.576Z,98191.90
2022-08-16T07:58:34.780Z,98192.15
2022-08-16T08:01:10.498Z,98191.98
2022-08-16T08:03:48.486Z,98190.65
2022-08-16T08:06:31.875Z,98189.30
2022-08-16T08:09:04.345Z,98197.58
2022-08-16T08:11:37.767Z,98195.48
2022-08-16T08:14:06.621Z,98196.30
2022-08-16T08:16:38.046Z,98194.97
2022-08-16T08:19:13.507Z,98194.08
2022-08-16T08:22:01.115Z,98197.59
2022-08-16T08:24:38.041Z,98193.66
2022-08-16T08:27:09.922Z,98199.31
2022-08-16T08:29:42.606Z,98199.69
2022-08-16T08:32:57.427Z,98201.08
2022-08-16T08:35:05.522Z,98203.75
2022-08-16T08:37:54.354Z,98211.98
2022-08-16T08:40:30.540Z,98215.06
2022-08-16T08:43:11.489Z,98210.27
2022-08-16T08:45:48.058Z,98210.52
2022-08-16T08:48:33.033Z,98207.69
2022-08-16T08:51:10.078Z,98206.13
2022-08-16T08:53:43.014Z,98204.11
2022-08-16T08:56:23.557Z,98202.77
2022-08-16T08:58:58.184Z,98204.48
2022-08-16T09:01:36.952Z,98203.63
2022-08-16T09:04:17.788Z,98209.61
2022-08-16T09:06:45.871Z,98210.67
2022-08-16T09:09:16.934Z,98214.13
2022-08-16T09:12:03.908Z,98212.69
2022-08-16T09:14:49.590Z,98216.20
2022-08-16T09:17:45.495Z,98212.75
2022-08-16T09:20:17.380Z,98214.42
2022-08-16T09:22:54.712Z,98209.11
2022-08-16T09:25:34.199Z,98207.15
2022-08-16T09:28:10.410Z,98212.01
2022-08-16T09:30:44.381Z,98210.79
2022-08-16T09:33:21.422Z,98211.98
2022-08-16T09:35:54.515Z,98210.56
2022-08-16T09:38:32.444Z,98210.52
2022-08-16T09:41:14.530Z,98210.66
2022-08-16T09:43:58.403Z,98218.52
2022-08-16T09:46:45.635Z,98221.31
2022-08-16T09:49:20.810Z,98225.48
2022-08-16T09:51:55.548Z,98226.78
2022-08-16T09:54:32.629Z,98222.77
2022-08-16T09:57:04.834Z,98220.33
2022-08-16T09:59:38.388Z,98221.80
2022-08-16T10:02:27.325Z,98220.83
2022-08-16T10:04:58.764Z,98229.77
2022-08-16T10:07:44.436Z,98228.12
2022-08-16T10:10:19.218Z,98225.30
2022-08-16T10:13:16.385Z,98227.73
2022-08-16T10:15:55.427Z,98230.30
2022-08-16T10:19:02.242Z,98239.14
2022-08-16T10:21:11.732Z,98242.67
2022-08-16T10:23:40.513Z,98246.27
2022-08-16T10:27:17.849Z,98248.63
2022-08-16T10:29:06.286Z,98253.02
2022-08-16T10:31:45.572Z,98254.48
2022-08-16T10:34:31.744Z,98254.91
2022-08-16T10:37:03.720Z,98255.25
2022-08-16T10:39:41.350Z,98251.78
2022-08-16T10:42:13.275Z,98249.56
2022-08-16T10:44:54.831Z,98247.90
2022-08-16T10:47:22.928Z,98245.48
2022-08-16T10:49:51.825Z,98239.77
2022-08-16T10:52:20.203Z,98235.98
2022-08-16T10:57:35.891Z,98237.31
2022-08-16T11:00:21.405Z,98238.36
2022-08-16T11:03:03.781Z,98241.92
2022-08-16T11:08:35.812Z,98239.65
2022-08-16T11:11:12.694Z,98236.19
2022-08-16T11:14:05.922Z,98230.76
2022-08-16T11:19:23.143Z,98234.08
2022-08-16T11:24:43.530Z,98225.48
2022-08-16T11:27:23.711Z,98217.43
2022-08-16T11:29:55.712Z,98215.34
2022-08-16T11:32:31.260Z,98220.60
2022-08-16T11:35:14.268Z,98223.52
2022-08-16T11:40:47.082Z,98220.04
2022-08-16T11:43:28.709Z,98218.23
2022-08-16T11:46:01.452Z,98216.79
2022-08-16T11:48:48.715Z,98217.48
2022-08-16T11:51:16.571Z,98212.87
2022-08-16T11:53:44.438Z,98202.48
2022-08-16T11:56:14.992Z,98208.68
2022-08-16T11:58:43.404Z,98206.49
2022-08-16T12:01:29.963Z,98205.32
2022-08-16T12:04:09.413Z,98203.80
2022-08-16T12:06:41.805Z,98201.80
2022-08-16T12:09:10.129Z,98194.71
2022-08-16T12:11:40.975Z,98194.23
2022-08-16T12:14:11.868Z,98190.98
2022-08-16T12:16:48.719Z,98190.14
2022-08-16T12:19:35.209Z,98187.80
2022-08-16T12:22:18.944Z,98186.55
2022-08-16T12:24:51.237Z,98186.90
2022-08-16T12:27:23.473Z,98184.80
2022-08-16T12:29:58.370Z,98183.70
2022-08-16T12:32:37.607Z,98185.28
2022-08-16T12:35:22.838Z,98180.84
2022-08-16T12:37:56.574Z,98177.28
2022-08-16T12:40:32.473Z,98175.72
2022-08-16T12:43:13.417Z,98170.83
2022-08-16T12:45:49.330Z,98168.66
2022-08-16T12:48:42.529Z,98168.10
2022-08-16T12:51:19.769Z,98164.40
2022-08-16T12:53:58.853Z,98162.94
2022-08-16T12:56:33.609Z,98163.45
2022-08-16T12:59:15.707Z,98165.75
2022-08-16T13:01:55.420Z,98167.64
2022-08-16T13:04:34.118Z,98170.27
2022-08-16T13:07:08.834Z,98174.40
2022-08-16T13:09:47.952Z,98167.66
2022-08-16T13:12:19.963Z,98171.27
2022-08-16T13:14:51.263Z,98173.23
2022-08-16T13:17:29.719Z,98173.13
2022-08-16T13:20:08.740Z,98180.20
2022-08-16T13:22:46.275Z,98176.67
2022-08-16T13:25:21.598Z,98178.23
2022-08-16T13:28:02.716Z,98173.85
2022-08-16T13:30:52.304Z,98170.89
2022-08-16T13:33:29.735Z,98170.95
2022-08-16T13:36:07.040Z,98166.65
2022-08-16T13:38:49.335Z,98167.17
2022-08-16T13:41:19.520Z,98161.24
2022-08-16T13:43:57.849Z,98163.77
2022-08-16T13:46:30.415Z,98157.21
2022-08-16T13:49:03.065Z,98155.65
2022-08-16T13:51:32.521Z,98155.33
2022-08-16T13:54:04.371Z,98154.05
2022-08-16T13:56:40.423Z,98153.14
2022-08-16T13:59:20.617Z,98150.61
2022-08-16T14:01:56.688Z,98153.00
2022-08-16T14:04:35.504Z,98150.63
2022-08-16T14:07:11.530Z,98152.94
2022-08-16T14:09:44.594Z,98161.61
2022-08-16T14:12:28.625Z,98159.38
2022-08-16T14:15:02.830Z,98157.61
2022-08-16T14:18:17.359Z,98159.02
2022-08-16T14:20:23.451Z,98163.77
2022-08-16T14:22:52.275Z,98162.98
2022-08-16T14:25:26.829Z,98162.08
2022-08-16T14:27:55.096Z,98162.55
2022-08-16T14:30:27.408Z,98161.20
2022-08-16T14:32:55.403Z,98160.64
2022-08-16T14:35:48.417Z,98164.73
2022-08-16T14:38:23.869Z,98172.98
2022-08-16T14:40:55.426Z,98177.87
2022-08-16T14:43:29.685Z,98183.23
2022-08-16T14:45:58.461Z,98187.21
2022-08-16T14:48:31.346Z,98185.42
2022-08-16T14:50:59.103Z,98193.54
2022-08-16T14:53:27.967Z,98198.69
2022-08-16T14:55:57.527Z,98198.79
2022-08-16T14:58:34.881Z,98201.25
2022-08-16T15:01:10.188Z,98200.94
2022-08-16T15:03:44.791Z,98206.31
2022-08-16T15:06:16.409Z,98208.63
2022-08-16T15:08:45.976Z,98207.23
2022-08-16T15:11:14.733Z,98208.93
2022-08-16T15:13:42.748Z,98204.32
2022-08-16T15:16:10.511Z,98204.85
2022-08-16T15:18:39.289Z,98208.54
2022-08-16T15:21:09.557Z,98214.02
2022-08-16T15:23:40.374Z,98210.05
2022-08-16T15:26:18.875Z,98209.02
2022-08-16T15:28:59.544Z,98205.94
2022-08-16T15:31:28.354Z,98203.83
2022-08-16T15:33:58.210Z,98202.21
2022-08-16T15:36:26.877Z,98206.20
2022-08-16T15:39:05.867Z,98199.08
2022-08-16T15:41:46.869Z,98200.58
2022-08-16T15:44:22.364Z,98206.54
2022-08-16T15:47:02.463Z,98217.40
2022-08-16T15:49:37.330Z,98228.86
2022-08-16T15:52:14.970Z,98234.81
2022-08-16T15:54:55.381Z,98228.69
2022-08-16T15:57:27.007Z,98227.92
2022-08-16T16:00:04.328Z,98235.33
2022-08-16T16:02:45.217Z,98243.63
2022-08-16T16:05:14.165Z,98239.04
2022-08-16T16:07:55.630Z,98237.35
2022-08-16T16:10:30.071Z,98231.15
2022-08-16T16:13:05.382Z,98226.59
2022-08-16T16:15:46.276Z,98220.02
2022-08-16T16:18:17.195Z,98217.09
2022-08-16T16:20:52.440Z,98217.98
2022-08-16T16:23:25.771Z,98214.21
2022-08-16T16:25:56.671Z,98215.06
2022-08-16T16:29:05.958Z,98211.39
2022-08-16T16:31:20.446Z,98207.97
2022-08-16T16:33:56.414Z,98205.79
2022-08-16T16:36:29.312Z,98203.29
2022-08-16T16:39:00.806Z,98202.30
2022-08-16T16:41:30.602Z,98205.58
2022-08-16T16:44:01.499Z,98206.23
2022-08-16T16:46:42.691Z,98209.23
2022-08-16T16:49:14.689Z,98213.89
2022-08-16T16:51:49.763Z,98220.77
2022-08-16T16:54:25.580Z,98219.19
2022-08-16T16:56:58.591Z,98227.03
2022-08-16T16:59:28.797Z,98227.77
2022-08-16T17:02:41.144Z,98229.59
2022-08-16T17:04:49.107Z,98235.50
2022-08-16T17:07:24.122Z,98236.61
2022-08-16T17:09:53.793Z,98239.80
2022-08-16T17:12:25.313Z,98241.64
2022-08-16T17:15:12.655Z,98253.77
2022-08-16T17:18:00.434Z,98257.29
2022-08-16T17:20:30.263Z,98258.11
2022-08-16T17:22:58.858Z,98264.69
2022-08-16T17:25:36.304Z,98264.53
2022-08-16T17:28:57.950Z,98266.41
2022-08-16T17:30:54.875Z,98265.98
2022-08-16T17:33:23.616Z,98265.14
2022-08-16T17:35:55.625Z,98264.11
2022-08-16T17:38:38.781Z,98263.66
2022-08-16T17:41:16.321Z,98266.88
2022-08-16T17:43:45.447Z,98271.98
2022-08-16T17:46:50.233Z,98270.50
2022-08-16T17:49:05.740Z,98276.91
2022-08-16T17:51:34.943Z,98273.45
2022-08-16T17:54:03.766Z,98272.22
2022-08-16T17:56:31.634Z,98266.70
2022-08-16T17:58:59.424Z,98263.86
2022-08-16T18:01:28.586Z,98260.86
2022-08-16T18:04:08.869Z,98267.13
2022-08-16T18:06:40.193Z,98267.11
2022-08-16T18:09:10.280Z,98271.00
2022-08-16T18:11:43.088Z,98270.54
2022-08-16T18:14:15.812Z,98268.66
2022-08-16T18:16:45.678Z,98269.06
2022-08-16T18:19:16.579Z,98268.16
2022-08-16T18:22:03.448Z,98268.23
2022-08-16T18:24:31.241Z,98268.29
2022-08-16T18:27:24.960Z,98272.32
2022-08-16T18:29:51.192Z,98270.69
2022-08-16T18:32:24.925Z,98274.65
2022-08-16T18:34:55.050Z,98278.14
2022-08-16T18:37:24.512Z,98277.19
2022-08-16T18:39:52.835Z,98280.04
2022-08-16T18:42:21.688Z,98286.52
2022-08-16T18:44:49.437Z,98287.21
2022-08-16T18:47:17.225Z,98290.67
2022-08-16T18:49:45.045Z,98293.98
2022-08-16T18:52:25.437Z,98297.41
2022-08-16T18:55:01.883Z,98298.17
2022-08-16T18:57:43.299Z,98298.92
2022-08-16T19:00:15.289Z,98295.67
2022-08-16T19:02:59.001Z,98300.21
2022-08-16T19:05:31.105Z,98301.64
2022-08-16T19:08:02.888Z,98300.77
2022-08-16T19:10:33.485Z,98304.45
2022-08-16T19:13:10.499Z,98306.73
2022-08-16T19:15:40.515Z,98309.16
2022-08-16T19:18:10.459Z,98311.38
2022-08-16T19:20:40.243Z,98310.74
2022-08-16T19:23:19.224Z,98314.26
2022-08-16T19:25:52.765Z,98314.44
2022-08-16T19:28:51.118Z,98316.71
2022-08-16T19:31:29.353Z,98319.73
2022-08-16T19:34:00.629Z,98321.73
2022-08-16T19:36:37.594Z,98325.44
2022-08-16T19:39:15.246Z,98326.79
2022-08-16T19:41:53.460Z,98326.67
2022-08-16T19:44:23.301Z,98329.66
2022-08-16T19:46:51.867Z,98332.64
2022-08-16T19:49:19.664Z,98331.98
2022-08-16T19:51:49.222Z,98334.92
2022-08-16T19:54:18.243Z,98337.27
2022-08-16T19:56:46.152Z,98339.44
2022-08-16T19:59:20.337Z,98343.14
2022-08-16T20:01:53.082Z,98342.95
2022-08-16T20:04:23.635Z,98345.40
2022-08-16T20:06:54.057Z,98346.02
2022-08-16T20:09:24.904Z,98349.45
2022-08-16T20:11:54.742Z,98349.36
2022-08-16T20:14:26.488Z,98348.11
2022-08-16T20:16:58.869Z,98341.95
2022-08-16T20:19:33.443Z,98341.70
2022-08-16T20:22:52.474Z,98342.58
2022-08-16T20:25:30.272Z,98342.36
2022-08-16T20:28:00.862Z,98343.95
2022-08-16T20:30:29.816Z,98342.86
2022-08-16T20:32:58.235Z,98344.79
2022-08-16T20:35:29.385Z,98345.70
2022-08-16T20:37:58.062Z,98347.16
2022-08-16T20:40:34.470Z,98349.58
2022-08-16T20:43:12.555Z,98350.54
2022-08-16T20:45:45.607Z,98351.16
2022-08-16T20:48:14.804Z,98353.48
2022-08-16T20:50:45.181Z,98351.70
2022-08-16T20:53:14.588Z,98346.91
2022-08-16T20:55:44.676Z,98347.98
2022-08-16T20:58:14.080Z,98344.07
2022-08-16T21:00:45.499Z,98344.73
2022-08-16T21:03:15.945Z,98346.06
2022-08-16T21:05:48.327Z,98342.38
2022-08-16T21:08:50.263Z,98343.41
2022-08-16T21:11:08.227Z,98343.98
2022-08-16T21:13:40.564Z,98349.61
2022-08-16T21:16:11.407Z,98351.92
2022-08-16T21:18:39.236Z,98351.58
2022-08-16T21:21:07.267Z,98350.35
2022-08-16T21:23:36.665Z,98349.48
2022-08-16T21:26:10.749Z,98358.76
2022-08-16T21:28:43.221Z,98360.87
2022-08-16T21:31:15.109Z,98361.67
2022-08-16T21:33:55.070Z,98362.63
2022-08-16T21:36:35.806Z,98362.63
2022-08-16T21:39:08.307Z,98361.20
2022-08-16T21:41:40.264Z,98364.46
2022-08-16T21:44:08.381Z,98360.73
2022-08-16T21:46:38.049Z,98356.20
2022-08-16T21:49:06.737Z,98358.63
2022-08-16T21:51:37.474Z,98362.38
2022-08-16T21:54:06.072Z,98368.63
2022-08-16T21:56:33.817Z,98372.58
2022-08-16T21:59:01.926Z,98373.94
2022-08-16T22:01:31.962Z,98373.32
2022-08-16T22:04:35.566Z,98371.89
2022-08-16T22:06:52.121Z,98379.34
2022-08-16T22:09:21.884Z,98373.92
2022-08-16T22:11:51.460Z,98372.38
2022-08-16T22:14:20.314Z,98370.16
2022-08-16T22:16:48.630Z,98371.12
2022-08-16T22:19:18.508Z,98369.98
2022-08-16T22:21:48.714Z,98371.75
2022-08-16T22:24:16.568Z,98376.86
2022-08-16T22:26:46.506Z,98374.33
2022-08-16T22:29:17.393Z,98370.90
2022-08-16T22:31:47.776Z,98368.63
2022-08-16T22:34:18.316Z,98367.35
2022-08-16T22:36:46.287Z,98359.55
2022-08-16T22:39:14.894Z,98355.86
2022-08-16T22:41:46.069Z,98356.01
2022-08-16T22:44:15.833Z,98357.08
2022-08-16T22:46:46.085Z,98353.27
2022-08-16T22:49:16.964Z,98350.77
2022-08-16T22:51:44.800Z,98345.59
2022-08-16T22:54:48.142Z,98340.89
2022-08-16T22:57:04.528Z,98339.96
2022-08-16T22:59:34.675Z,98335.58
2022-08-16T23:02:05.930Z,98332.21
2022-08-16T23:04:34.053Z,98331.31
2022-08-16T23:07:03.672Z,98330.95
2022-08-16T23:09:33.896Z,98327.15
2022-08-16T23:12:08.888Z,98323.84
2022-08-16T23:14:36.978Z,98326.29
2022-08-16T23:17:07.625Z,98324.67
2022-08-16T23:19:35.433Z,98323.70
2022-08-16T23:22:04.789Z,98318.73
2022-08-16T23:24:37.205Z,98320.00
2022-08-16T23:27:21.662Z,98325.43
2022-08-16T23:29:49.639Z,98327.73
2022-08-16T23:32:19.704Z,98325.00
2022-08-16T23:34:50.099Z,98329.12
2022-08-16T23:37:23.253Z,98328.60
2022-08-16T23:39:54.539Z,98325.64
2022-08-16T23:42:52.401Z,98326.36
2022-08-16T23:45:11.544Z,98329.02
2022-08-16T23:47:43.764Z,98326.56
2022-08-16T23:50:14.305Z,98330.15
2022-08-16T23:53:13.868Z,98326.29
2022-08-16T23:55:49.108Z,98320.91
2022-08-16T23:58:22.522Z,98321.33
